• Join FlightAware (Why Join?)
  • Login
  • US Flag 
07:48AM EDT


 

Airport Tracker/Info


-or-


 

Live Flight TrackerFlight Track Log ✈ CTL13 ✈ 23-Apr-2013 ✈ KBKL - KEYE

Flight Track Log - Related Links

Times and Time Zones

All times are in EDT time to prevent confusion due to time zone crossing. See the CTL13 flight status page for this flight to view local times or setup timezone preferences in your user account.

Time Position Orientation Groundspeed Altitude Reporting Facility
EDT Latitude Longitude Course Direction KTS MPH feet Rate Location/Type
06:39PM 41.5147 -81.7006 341° North 142 163 800  Level Cleveland Center
06:40PM 41.5458 -81.7150 341° North 165 190 1,400 840 Climbing Cleveland Center
06:41PM 41.5686 -81.7378 323° Northwest 147 169 2,100 780 Climbing Cleveland Center
06:42PM 41.5825 -81.7878 290° West 146 168 2,900 840 Climbing Cleveland Center
06:43PM 41.5925 -81.8353 286° West 117 135 3,900 540 Climbing Cleveland Center
06:44PM 41.5961 -81.8881 275° West 157 181 4,100  Climbing Cleveland Center
06:45PM 41.5994 -81.9575 274° West 170 196 3,900 -120 Descending Cleveland Center
06:47PM 41.5731 -82.0569 250° West 146 168 3,900  Level Cleveland Center
06:48PM 41.5561 -82.0928 238° Southwest 151 174 3,900  Level Cleveland Center
06:49PM 41.5281 -82.1503 237° Southwest 142 163 4,000  Climbing Cleveland Center
06:50PM 41.5086 -82.1969 241° Southwest 147 169 4,000  Level Cleveland Center
06:52PM 41.4816 -82.2676 243° Southwest  Level Estimated
06:59PM 41.3520 -82.6041 243° Southwest  Level Estimated
07:00PM 41.3335 -82.6521 243° Southwest  Level Estimated
07:01PM 41.3148 -82.7000 243° Southwest  Level Estimated
07:02PM 41.2962 -82.7479 243° Southwest  Level Estimated
07:03PM 41.2776 -82.7958 243° Southwest  Level Estimated
07:04PM 41.2589 -82.8437 243° Southwest  Level Estimated
07:05PM 41.2402 -82.8915 243° Southwest  Level Estimated
07:06PM 41.2215 -82.9393 243° Southwest  Level Estimated
07:07PM 41.2028 -82.9871 242° Southwest  Level Estimated
07:08PM 41.1840 -83.0348 242° Southwest  Level Estimated
07:09PM 41.1652 -83.0825 242° Southwest  Level Estimated
07:10PM 41.1465 -83.1302 242° Southwest  Level Estimated
07:11PM 41.1277 -83.1779 242° Southwest  Level Estimated
07:12PM 41.1088 -83.2255 242° Southwest  Level Estimated
07:13PM 41.0900 -83.2731 242° Southwest  Level Estimated
07:14PM 41.0712 -83.3207 242° Southwest  Level Estimated
07:14PM 41.0178 -83.3147 242° Southwest 145 167 4,000  Level Indianapolis Center
07:15PM 41.0523 -83.3682 242° Southwest  Level Estimated
07:16PM 41.0334 -83.4158 242° Southwest  Level Estimated
07:16PM 40.9964 -83.3586 237° Southwest 142 163 4,000  Level Indianapolis Center
07:17PM 41.0145 -83.4633 242° Southwest  Level Estimated
07:17PM 40.9758 -83.4028 238° Southwest 140 161 4,000  Level Indianapolis Center
07:18PM 40.9955 -83.5107 242° Southwest  Level Estimated
07:18PM 40.9556 -83.4469 239° Southwest 140 161 4,000  Level Indianapolis Center
07:19PM 40.9766 -83.5582 242° Southwest  Level Estimated
07:19PM 40.9336 -83.4933 238° Southwest 146 168 4,000  Level Indianapolis Center
07:20PM 40.9576 -83.6056 242° Southwest  Level Estimated
07:20PM 40.9119 -83.5439 240° Southwest 147 169 4,000  Level Indianapolis Center
07:21PM 40.8903 -83.5881 237° Southwest 146 168 4,000  Level Indianapolis Center
07:22PM 40.8692 -83.6308 237° Southwest 142 163 4,000  Level Indianapolis Center
07:23PM 40.8492 -83.6769 240° Southwest 142 163 4,000  Level Indianapolis Center
07:24PM 40.8281 -83.7203 237° Southwest 141 162 4,000  Level Indianapolis Center
07:25PM 40.8072 -83.7642 238° Southwest 140 161 4,000  Level Indianapolis Center
07:26PM 40.7831 -83.8164 239° Southwest 141 162 4,000  Level Indianapolis Center
07:27PM 40.7617 -83.8611 238° Southwest 143 165 4,000 -60 Level Indianapolis Center
07:28PM 40.7394 -83.9028 235° Southwest 141 162 3,900 -60 Descending Indianapolis Center
07:29PM 40.7225 -83.9397 239° Southwest 140 161 3,900  Level Indianapolis Center
07:29PM 40.7178 -83.9475 231° Southwest 142 163 3,900  Level Indianapolis Center
07:30PM 40.7003 -83.9836 237° Southwest 142 163 3,900 60 Level Indianapolis Center
07:30PM 40.6975 -83.9917 246° West 141 162 4,000 60 Climbing Indianapolis Center
07:31PM 40.6842 -84.0311 246° West 146 168 4,000 -120 Level Indianapolis Center
07:31PM 40.6800 -84.0406 240° Southwest 143 165 3,900  Descending Indianapolis Center
07:32PM 40.6658 -84.0781 244° Southwest 146 168 4,000  Climbing Indianapolis Center
07:32PM 40.6625 -84.0892 248° West 144 166 3,900  Descending Indianapolis Center
07:33PM 40.6475 -84.1253 241° Southwest 144 166 4,000 60 Climbing Indianapolis Center
07:33PM 40.6450 -84.1358 253° West 143 165 4,000 -120 Level Indianapolis Center
07:34PM 40.6289 -84.1750 242° Southwest 145 167 3,900  Descending Indianapolis Center
07:34PM 40.6242 -84.1919 250° West 143 165 4,000  Climbing Indianapolis Center
07:35PM 40.6125 -84.2250 245° Southwest 144 166 3,900  Descending Indianapolis Center
07:35PM 40.6083 -84.2400 250° West 143 165 4,000 60 Climbing Indianapolis Center
07:36PM 40.5942 -84.2722 240° Southwest 142 163 4,000  Level Indianapolis Center
07:36PM 40.5894 -84.2872 247° West 145 167 4,000 -120 Level Indianapolis Center
07:37PM 40.5756 -84.3219 242° Southwest 141 162 3,900  Descending Indianapolis Center
07:37PM 40.5706 -84.3364 246° West 146 168 4,000 60 Climbing Indianapolis Center
07:38PM 40.5592 -84.3692 245° Southwest 143 165 4,000  Level Indianapolis Center
07:38PM 40.5550 -84.3808 245° Southwest 142 163 4,000  Level Indianapolis Center
07:39PM 40.5386 -84.4183 240° Southwest 142 163 4,000  Level Indianapolis Center
07:39PM 40.5375 -84.4219 248° West 138 159 4,000  Level Indianapolis Center
07:40PM 40.5200 -84.4653 242° Southwest 145 167 4,000  Level Indianapolis Center
07:41PM 40.5061 -84.5100 248° West 148 170 4,000  Level Indianapolis Center
07:41PM 40.4953 -84.5386 244° Southwest 141 162 4,000  Level Indianapolis Center
07:42PM 40.4875 -84.5569 241° Southwest 142 163 4,000  Level Indianapolis Center
07:43PM 40.4711 -84.6042 245° Southwest 143 165 4,000  Level Indianapolis Center
07:44PM 40.4467 -84.6472 233° Southwest 143 165 4,000  Level Indianapolis Center
07:45PM 40.4144 -84.6839 221° Southwest 133 153 4,100  Climbing Indianapolis Center
07:46PM 40.3900 -84.7242 231° Southwest 141 162 4,000 -60 Descending Indianapolis Center
07:47PM 40.3642 -84.7564 224° Southwest 138 159 4,000  Level Indianapolis Center
07:47PM 40.3583 -84.7606 209° Southwest 140 161 4,000  Level Indianapolis Center
07:48PM 40.3381 -84.7936 231° Southwest 136 157 4,000  Level Indianapolis Center
07:48PM 40.3325 -84.7983 213° Southwest 139 160 4,000  Level Indianapolis Center
07:49PM 40.3050 -84.8383 228° Southwest 139 160 4,000 -60 Level Indianapolis Center
07:50PM 40.2836 -84.8681 227° Southwest 137 158 3,900  Descending Indianapolis Center
07:50PM 40.2744 -84.8758 213° Southwest 136 157 4,000 60 Climbing Indianapolis Center
07:51PM 40.2553 -84.9050 229° Southwest 134 154 4,000  Level Indianapolis Center
07:51PM 40.2489 -84.9114 217° Southwest 134 154 4,000  Level Indianapolis Center
07:52PM 40.2292 -84.9422 230° Southwest 137 158 4,000 -120 Level Indianapolis Center
07:52PM 40.2214 -84.9489 213° Southwest 137 158 3,900  Descending Indianapolis Center
07:53PM 40.2011 -84.9767 226° Southwest 138 159 4,000 60 Climbing Indianapolis Center
07:53PM 40.1947 -84.9839 221° Southwest 137 158 4,000  Level Indianapolis Center
07:54PM 40.1733 -85.0081 221° Southwest 134 154 4,000  Level Indianapolis Center
07:54PM 40.1661 -85.0181 227° Southwest 137 158 4,000  Level Indianapolis Center
07:55PM 40.1528 -85.0517 243° Southwest 145 167 4,000  Level Indianapolis Center
07:55PM 40.1475 -85.0625 237° Southwest 139 160 4,000 60 Level Indianapolis Center
07:56PM 40.1422 -85.1019 260° West 144 166 4,100 60 Climbing Indianapolis Center
07:56PM 40.1378 -85.1125 241° Southwest 140 161 4,100  Level Indianapolis Center
07:58PM 40.1228 -85.1692 251° West 140 161 4,100  Level Indianapolis Center
07:59PM 40.1111 -85.2189 253° West 141 162 4,100  Level Indianapolis Center
08:00PM 40.0994 -85.2672 253° West 140 161 4,100 -60 Level Indianapolis Center
08:01PM 40.0886 -85.3156 254° West 140 161 4,000 -60 Descending Indianapolis Center
08:02PM 40.0767 -85.3653 253° West 141 162 4,000  Level Indianapolis Center
08:03PM 40.0639 -85.4122 250° West 138 159 4,000  Level Indianapolis Center
08:04PM 40.0503 -85.4600 250° West 139 160 4,000  Level Indianapolis Center
08:05PM 40.0378 -85.5058 250° West 136 157 4,000  Level Indianapolis Center
08:06PM 40.0253 -85.5550 252° West 138 159 4,000  Level Indianapolis Center
08:07PM 40.0111 -85.6100 251° West 138 159 4,000  Level Indianapolis Center
08:08PM 39.9986 -85.6561 251° West 136 157 4,000  Level Indianapolis Center
08:09PM 39.9869 -85.7022 252° West 135 155 4,000  Level Indianapolis Center
08:10PM 39.9758 -85.7475 252° West 131 151 4,000  Level Indianapolis Center
08:11PM 39.9633 -85.7944 251° West 134 154 4,000  Level Indianapolis Center
08:12PM 39.9511 -85.8400 251° West 134 154 4,000  Level Indianapolis Center
08:13PM 39.9400 -85.8864 253° West 133 153 4,000  Level Indianapolis Center
08:14PM 39.9336 -85.9369 261° West 137 158 4,000 -480 Level Indianapolis Center
08:15PM 39.9319 -86.0019 268° West 147 169 3,100 -540 Descending Indianapolis Center
08:16PM 39.9292 -86.0628 267° West 159 183 3,000 -60 Descending Indianapolis Center
08:17PM 39.9253 -86.1175 265° West 157 181 3,000 -60 Level Indianapolis Center
08:18PM 39.9244 -86.1708 269° West 152 175 2,900 -60 Descending Indianapolis Center
08:19PM 39.9250 -86.2217 271° West 145 167 2,900  Level Indianapolis Center
08:21PM 39.8772 -86.2586 249° West  Level Estimated
08:28PM 39.8308 -86.2944 90° East  Level Estimated
08:29PM 39.8308 -86.2944 90° East  Level Estimated
08:30PM 39.8308 -86.2944 90° East  Level Estimated